sensor_id;sensor_type;location;lat;lon;timestamp;temperature;humidity
33564;DHT22;19894;48.452;11.494;2023-05-07T00:01:48;19.10;54.20
33564;DHT22;19894;48.452;11.494;2023-05-07T00:04:13;19.10;54.20
33564;DHT22;19894;48.452;11.494;2023-05-07T00:06:39;19.10;54.20
33564;DHT22;19894;48.452;11.494;2023-05-07T00:09:05;19.10;54.10
33564;DHT22;19894;48.452;11.494;2023-05-07T00:11:31;19.10;54.10
33564;DHT22;19894;48.452;11.494;2023-05-07T00:13:57;19.10;54.10
33564;DHT22;19894;48.452;11.494;2023-05-07T00:16:22;19.10;54.10
33564;DHT22;19894;48.452;11.494;2023-05-07T00:18:48;19.10;54.10
33564;DHT22;19894;48.452;11.494;2023-05-07T00:21:13;19.10;54.10
33564;DHT22;19894;48.452;11.494;2023-05-07T00:23:39;19.10;54.00
33564;DHT22;19894;48.452;11.494;2023-05-07T00:26:04;19.10;54.00
33564;DHT22;19894;48.452;11.494;2023-05-07T00:28:30;19.10;54.00
33564;DHT22;19894;48.452;11.494;2023-05-07T00:30:56;19.10;54.00
33564;DHT22;19894;48.452;11.494;2023-05-07T00:33:21;19.10;53.90
33564;DHT22;19894;48.452;11.494;2023-05-07T00:35:47;19.10;53.90
33564;DHT22;19894;48.452;11.494;2023-05-07T00:38:13;19.10;53.80
33564;DHT22;19894;48.452;11.494;2023-05-07T00:40:39;19.20;53.90
33564;DHT22;19894;48.452;11.494;2023-05-07T00:43:04;19.10;53.80
33564;DHT22;19894;48.452;11.494;2023-05-07T00:45:30;19.10;53.80
33564;DHT22;19894;48.452;11.494;2023-05-07T00:47:59;19.10;53.80
33564;DHT22;19894;48.452;11.494;2023-05-07T00:50:26;19.10;53.80
33564;DHT22;19894;48.452;11.494;2023-05-07T00:52:52;19.10;53.80
33564;DHT22;19894;48.452;11.494;2023-05-07T00:55:18;19.10;53.80
33564;DHT22;19894;48.452;11.494;2023-05-07T00:57:44;19.10;53.80
33564;DHT22;19894;48.452;11.494;2023-05-07T01:00:11;19.10;53.80
33564;DHT22;19894;48.452;11.494;2023-05-07T01:02:40;19.10;53.80
33564;DHT22;19894;48.452;11.494;2023-05-07T01:05:09;19.10;53.80
33564;DHT22;19894;48.452;11.494;2023-05-07T01:07:35;19.10;53.80
33564;DHT22;19894;48.452;11.494;2023-05-07T01:10:03;19.10;53.90
33564;DHT22;19894;48.452;11.494;2023-05-07T01:12:30;19.10;53.80
33564;DHT22;19894;48.452;11.494;2023-05-07T01:14:56;19.10;53.80
33564;DHT22;19894;48.452;11.494;2023-05-07T01:17:22;19.10;53.80
33564;DHT22;19894;48.452;11.494;2023-05-07T01:19:48;19.10;53.70
33564;DHT22;19894;48.452;11.494;2023-05-07T01:22:15;19.10;53.80
33564;DHT22;19894;48.452;11.494;2023-05-07T01:24:42;19.10;53.80
33564;DHT22;19894;48.452;11.494;2023-05-07T01:27:07;19.10;53.70
33564;DHT22;19894;48.452;11.494;2023-05-07T01:29:33;19.10;53.70
33564;DHT22;19894;48.452;11.494;2023-05-07T01:32:00;19.10;53.70
33564;DHT22;19894;48.452;11.494;2023-05-07T01:34:28;19.10;53.70
33564;DHT22;19894;48.452;11.494;2023-05-07T01:36:55;19.10;53.60
33564;DHT22;19894;48.452;11.494;2023-05-07T01:39:25;19.10;53.60
33564;DHT22;19894;48.452;11.494;2023-05-07T01:41:50;19.10;53.60
33564;DHT22;19894;48.452;11.494;2023-05-07T01:44:16;19.10;53.60
33564;DHT22;19894;48.452;11.494;2023-05-07T01:46:43;19.10;53.60
33564;DHT22;19894;48.452;11.494;2023-05-07T01:49:09;19.10;53.50
33564;DHT22;19894;48.452;11.494;2023-05-07T01:51:35;19.10;53.50
33564;DHT22;19894;48.452;11.494;2023-05-07T01:54:01;19.10;53.50
33564;DHT22;19894;48.452;11.494;2023-05-07T01:56:27;19.10;53.50
33564;DHT22;19894;48.452;11.494;2023-05-07T01:58:52;19.10;53.50
33564;DHT22;19894;48.452;11.494;2023-05-07T02:01:18;19.10;53.50
33564;DHT22;19894;48.452;11.494;2023-05-07T02:03:44;19.10;53.60
33564;DHT22;19894;48.452;11.494;2023-05-07T02:06:09;19.10;53.60
33564;DHT22;19894;48.452;11.494;2023-05-07T02:08:35;19.10;53.60
33564;DHT22;19894;48.452;11.494;2023-05-07T02:11:01;19.10;53.60
33564;DHT22;19894;48.452;11.494;2023-05-07T02:13:29;19.10;53.60
33564;DHT22;19894;48.452;11.494;2023-05-07T02:15:55;19.10;53.60
33564;DHT22;19894;48.452;11.494;2023-05-07T02:18:20;19.10;53.50
33564;DHT22;19894;48.452;11.494;2023-05-07T02:20:46;19.10;53.50
33564;DHT22;19894;48.452;11.494;2023-05-07T02:23:11;19.10;53.50
33564;DHT22;19894;48.452;11.494;2023-05-07T02:25:37;19.10;53.50
33564;DHT22;19894;48.452;11.494;2023-05-07T02:28:03;19.10;53.50
33564;DHT22;19894;48.452;11.494;2023-05-07T02:30:28;19.10;53.50
33564;DHT22;19894;48.452;11.494;2023-05-07T02:32:54;19.10;53.50
33564;DHT22;19894;48.452;11.494;2023-05-07T02:35:20;19.10;53.40
33564;DHT22;19894;48.452;11.494;2023-05-07T02:37:45;19.10;53.40
33564;DHT22;19894;48.452;11.494;2023-05-07T02:40:11;19.10;53.40
33564;DHT22;19894;48.452;11.494;2023-05-07T02:42:37;19.10;53.40
33564;DHT22;19894;48.452;11.494;2023-05-07T02:45:03;19.10;53.30
33564;DHT22;19894;48.452;11.494;2023-05-07T02:47:28;19.10;53.30
33564;DHT22;19894;48.452;11.494;2023-05-07T02:49:57;19.10;53.20
33564;DHT22;19894;48.452;11.494;2023-05-07T02:52:22;19.10;53.30
33564;DHT22;19894;48.452;11.494;2023-05-07T02:54:48;19.10;53.30
33564;DHT22;19894;48.452;11.494;2023-05-07T02:57:14;19.10;53.30
33564;DHT22;19894;48.452;11.494;2023-05-07T02:59:40;19.10;53.30
33564;DHT22;19894;48.452;11.494;2023-05-07T03:02:05;19.10;53.30
33564;DHT22;19894;48.452;11.494;2023-05-07T03:04:31;19.10;53.30
33564;DHT22;19894;48.452;11.494;2023-05-07T03:06:56;19.10;53.30
33564;DHT22;19894;48.452;11.494;2023-05-07T03:09:22;19.10;53.30
33564;DHT22;19894;48.452;11.494;2023-05-07T03:11:47;19.10;53.30
33564;DHT22;19894;48.452;11.494;2023-05-07T03:14:13;19.10;53.30
33564;DHT22;19894;48.452;11.494;2023-05-07T03:16:39;19.10;53.30
33564;DHT22;19894;48.452;11.494;2023-05-07T03:19:04;19.10;53.30
33564;DHT22;19894;48.452;11.494;2023-05-07T03:21:30;19.10;53.30
33564;DHT22;19894;48.452;11.494;2023-05-07T03:23:56;19.10;53.20
33564;DHT22;19894;48.452;11.494;2023-05-07T03:26:21;19.10;53.20
33564;DHT22;19894;48.452;11.494;2023-05-07T03:28:47;19.10;53.20
33564;DHT22;19894;48.452;11.494;2023-05-07T03:31:13;19.10;53.20
33564;DHT22;19894;48.452;11.494;2023-05-07T03:33:52;19.10;53.20
33564;DHT22;19894;48.452;11.494;2023-05-07T03:36:18;19.10;53.10
33564;DHT22;19894;48.452;11.494;2023-05-07T03:38:44;19.10;53.20
33564;DHT22;19894;48.452;11.494;2023-05-07T03:41:09;19.10;53.10
33564;DHT22;19894;48.452;11.494;2023-05-07T03:43:35;19.10;53.10
33564;DHT22;19894;48.452;11.494;2023-05-07T03:46:01;19.10;53.10
33564;DHT22;19894;48.452;11.494;2023-05-07T03:48:26;19.10;53.10
33564;DHT22;19894;48.452;11.494;2023-05-07T03:50:52;19.10;53.10
33564;DHT22;19894;48.452;11.494;2023-05-07T03:53:17;19.10;53.00
33564;DHT22;19894;48.452;11.494;2023-05-07T03:55:43;19.10;53.00
33564;DHT22;19894;48.452;11.494;2023-05-07T03:58:08;19.10;53.00
33564;DHT22;19894;48.452;11.494;2023-05-07T04:00:34;19.10;53.00
33564;DHT22;19894;48.452;11.494;2023-05-07T04:03:04;19.10;53.00
33564;DHT22;19894;48.452;11.494;2023-05-07T04:05:30;19.10;53.00
33564;DHT22;19894;48.452;11.494;2023-05-07T04:07:57;19.10;53.00
33564;DHT22;19894;48.452;11.494;2023-05-07T04:10:23;19.10;53.00
33564;DHT22;19894;48.452;11.494;2023-05-07T04:12:48;19.10;53.00
33564;DHT22;19894;48.452;11.494;2023-05-07T04:15:14;19.10;53.00
33564;DHT22;19894;48.452;11.494;2023-05-07T04:17:40;19.10;53.00
33564;DHT22;19894;48.452;11.494;2023-05-07T04:20:10;19.10;53.00
33564;DHT22;19894;48.452;11.494;2023-05-07T04:22:36;19.10;53.00
33564;DHT22;19894;48.452;11.494;2023-05-07T04:25:02;19.10;53.00
33564;DHT22;19894;48.452;11.494;2023-05-07T04:27:28;19.10;52.90
33564;DHT22;19894;48.452;11.494;2023-05-07T04:29:54;19.10;52.80
33564;DHT22;19894;48.452;11.494;2023-05-07T04:32:21;19.10;52.80
33564;DHT22;19894;48.452;11.494;2023-05-07T04:34:47;19.10;52.80
33564;DHT22;19894;48.452;11.494;2023-05-07T04:37:13;19.10;52.70
33564;DHT22;19894;48.452;11.494;2023-05-07T04:39:38;19.10;52.70
33564;DHT22;19894;48.452;11.494;2023-05-07T04:42:04;19.10;52.60
33564;DHT22;19894;48.452;11.494;2023-05-07T04:44:30;19.10;52.60
33564;DHT22;19894;48.452;11.494;2023-05-07T04:46:56;19.10;52.60
33564;DHT22;19894;48.452;11.494;2023-05-07T04:49:22;19.10;52.60
33564;DHT22;19894;48.452;11.494;2023-05-07T04:51:47;19.10;52.60
33564;DHT22;19894;48.452;11.494;2023-05-07T04:54:13;19.10;52.60
33564;DHT22;19894;48.452;11.494;2023-05-07T04:56:38;19.10;52.60
33564;DHT22;19894;48.452;11.494;2023-05-07T04:59:04;19.10;52.60
33564;DHT22;19894;48.452;11.494;2023-05-07T05:01:30;19.10;52.60
33564;DHT22;19894;48.452;11.494;2023-05-07T05:03:55;19.10;52.60
33564;DHT22;19894;48.452;11.494;2023-05-07T05:06:21;19.10;52.60
33564;DHT22;19894;48.452;11.494;2023-05-07T05:08:46;19.10;52.60
33564;DHT22;19894;48.452;11.494;2023-05-07T05:11:12;19.10;52.60
33564;DHT22;19894;48.452;11.494;2023-05-07T05:13:37;19.10;52.60
33564;DHT22;19894;48.452;11.494;2023-05-07T05:16:03;19.10;52.60
33564;DHT22;19894;48.452;11.494;2023-05-07T05:18:29;19.10;52.60
33564;DHT22;19894;48.452;11.494;2023-05-07T05:20:54;19.10;52.60
33564;DHT22;19894;48.452;11.494;2023-05-07T05:23:20;19.10;52.60
33564;DHT22;19894;48.452;11.494;2023-05-07T05:25:45;19.10;52.60
33564;DHT22;19894;48.452;11.494;2023-05-07T05:28:11;19.10;52.60
33564;DHT22;19894;48.452;11.494;2023-05-07T05:30:37;19.10;52.60
33564;DHT22;19894;48.452;11.494;2023-05-07T05:33:02;19.10;52.60
33564;DHT22;19894;48.452;11.494;2023-05-07T05:35:29;19.00;52.60
33564;DHT22;19894;48.452;11.494;2023-05-07T05:37:54;19.10;52.60
33564;DHT22;19894;48.452;11.494;2023-05-07T05:40:20;19.10;52.60
33564;DHT22;19894;48.452;11.494;2023-05-07T05:42:45;19.10;52.60
33564;DHT22;19894;48.452;11.494;2023-05-07T05:45:11;19.10;52.60
33564;DHT22;19894;48.452;11.494;2023-05-07T05:47:37;19.10;52.70
33564;DHT22;19894;48.452;11.494;2023-05-07T05:50:03;19.10;52.70
33564;DHT22;19894;48.452;11.494;2023-05-07T05:52:30;19.10;52.70
33564;DHT22;19894;48.452;11.494;2023-05-07T05:54:55;19.10;52.80
33564;DHT22;19894;48.452;11.494;2023-05-07T05:57:21;19.10;52.80
33564;DHT22;19894;48.452;11.494;2023-05-07T05:59:46;19.10;52.80
33564;DHT22;19894;48.452;11.494;2023-05-07T06:02:12;19.10;52.70
33564;DHT22;19894;48.452;11.494;2023-05-07T06:04:38;19.10;52.80
33564;DHT22;19894;48.452;11.494;2023-05-07T06:07:03;19.10;52.80
33564;DHT22;19894;48.452;11.494;2023-05-07T06:09:29;19.10;52.80
33564;DHT22;19894;48.452;11.494;2023-05-07T06:11:54;19.10;52.90
33564;DHT22;19894;48.452;11.494;2023-05-07T06:14:20;19.10;52.80
33564;DHT22;19894;48.452;11.494;2023-05-07T06:16:45;19.10;52.80
33564;DHT22;19894;48.452;11.494;2023-05-07T06:19:11;19.10;52.80
33564;DHT22;19894;48.452;11.494;2023-05-07T06:21:38;19.10;52.80
33564;DHT22;19894;48.452;11.494;2023-05-07T06:24:04;19.10;52.90
33564;DHT22;19894;48.452;11.494;2023-05-07T06:26:29;19.10;52.80
33564;DHT22;19894;48.452;11.494;2023-05-07T06:28:55;19.10;52.90
33564;DHT22;19894;48.452;11.494;2023-05-07T06:31:20;19.10;53.00
33564;DHT22;19894;48.452;11.494;2023-05-07T06:33:46;19.10;53.00
33564;DHT22;19894;48.452;11.494;2023-05-07T06:36:12;19.10;53.00
33564;DHT22;19894;48.452;11.494;2023-05-07T06:38:37;19.00;53.10
33564;DHT22;19894;48.452;11.494;2023-05-07T06:41:03;19.10;53.30
33564;DHT22;19894;48.452;11.494;2023-05-07T06:43:28;19.10;53.50
33564;DHT22;19894;48.452;11.494;2023-05-07T06:45:54;19.10;53.70
33564;DHT22;19894;48.452;11.494;2023-05-07T06:48:20;19.10;53.80
33564;DHT22;19894;48.452;11.494;2023-05-07T06:50:45;19.10;54.30
33564;DHT22;19894;48.452;11.494;2023-05-07T06:53:11;19.10;54.00
33564;DHT22;19894;48.452;11.494;2023-05-07T06:55:37;19.10;54.10
33564;DHT22;19894;48.452;11.494;2023-05-07T06:58:03;19.10;54.20
33564;DHT22;19894;48.452;11.494;2023-05-07T07:00:29;19.10;54.30
33564;DHT22;19894;48.452;11.494;2023-05-07T07:02:56;19.10;54.30
33564;DHT22;19894;48.452;11.494;2023-05-07T07:05:21;19.20;54.30
33564;DHT22;19894;48.452;11.494;2023-05-07T07:07:47;19.10;54.10
33564;DHT22;19894;48.452;11.494;2023-05-07T07:10:18;19.20;54.10
33564;DHT22;19894;48.452;11.494;2023-05-07T07:12:44;19.10;54.00
33564;DHT22;19894;48.452;11.494;2023-05-07T07:15:10;19.10;54.00
33564;DHT22;19894;48.452;11.494;2023-05-07T07:17:36;19.10;54.00
33564;DHT22;19894;48.452;11.494;2023-05-07T07:20:02;19.10;53.90
33564;DHT22;19894;48.452;11.494;2023-05-07T07:22:28;19.10;54.00
33564;DHT22;19894;48.452;11.494;2023-05-07T07:24:54;19.10;53.90
33564;DHT22;19894;48.452;11.494;2023-05-07T07:27:19;19.10;53.80
33564;DHT22;19894;48.452;11.494;2023-05-07T07:29:45;19.10;53.80
33564;DHT22;19894;48.452;11.494;2023-05-07T07:32:11;19.10;53.80
33564;DHT22;19894;48.452;11.494;2023-05-07T07:34:36;19.10;53.80
33564;DHT22;19894;48.452;11.494;2023-05-07T07:37:02;19.10;53.90
33564;DHT22;19894;48.452;11.494;2023-05-07T07:39:31;19.10;53.80
33564;DHT22;19894;48.452;11.494;2023-05-07T07:41:56;19.10;53.90
33564;DHT22;19894;48.452;11.494;2023-05-07T07:44:22;19.10;54.70
33564;DHT22;19894;48.452;11.494;2023-05-07T07:46:47;19.10;54.50
33564;DHT22;19894;48.452;11.494;2023-05-07T07:49:13;19.10;54.70
33564;DHT22;19894;48.452;11.494;2023-05-07T07:51:39;19.10;54.80
33564;DHT22;19894;48.452;11.494;2023-05-07T07:54:05;19.10;55.00
33564;DHT22;19894;48.452;11.494;2023-05-07T07:56:32;19.10;55.00
33564;DHT22;19894;48.452;11.494;2023-05-07T07:58:58;19.10;55.20
33564;DHT22;19894;48.452;11.494;2023-05-07T08:01:24;19.10;55.30
33564;DHT22;19894;48.452;11.494;2023-05-07T08:03:50;19.10;55.40
33564;DHT22;19894;48.452;11.494;2023-05-07T08:06:15;19.20;56.00
33564;DHT22;19894;48.452;11.494;2023-05-07T08:08:41;19.10;55.50
33564;DHT22;19894;48.452;11.494;2023-05-07T08:11:06;19.10;55.40
33564;DHT22;19894;48.452;11.494;2023-05-07T08:13:32;19.10;55.30
33564;DHT22;19894;48.452;11.494;2023-05-07T08:15:58;19.10;55.20
33564;DHT22;19894;48.452;11.494;2023-05-07T08:18:24;19.20;55.10
33564;DHT22;19894;48.452;11.494;2023-05-07T08:20:50;19.10;54.90
33564;DHT22;19894;48.452;11.494;2023-05-07T08:23:15;19.10;55.00
33564;DHT22;19894;48.452;11.494;2023-05-07T08:25:41;19.20;54.90
33564;DHT22;19894;48.452;11.494;2023-05-07T08:28:08;19.10;54.90
33564;DHT22;19894;48.452;11.494;2023-05-07T08:30:33;19.10;54.90
33564;DHT22;19894;48.452;11.494;2023-05-07T08:33:00;19.20;54.90
33564;DHT22;19894;48.452;11.494;2023-05-07T08:35:26;19.10;54.70
33564;DHT22;19894;48.452;11.494;2023-05-07T08:37:52;19.10;55.20
33564;DHT22;19894;48.452;11.494;2023-05-07T08:40:18;19.10;54.60
33564;DHT22;19894;48.452;11.494;2023-05-07T08:42:44;19.10;54.60
33564;DHT22;19894;48.452;11.494;2023-05-07T08:45:11;19.10;54.70
33564;DHT22;19894;48.452;11.494;2023-05-07T08:47:44;19.10;54.60
33564;DHT22;19894;48.452;11.494;2023-05-07T08:50:11;19.10;54.80
33564;DHT22;19894;48.452;11.494;2023-05-07T08:52:37;19.10;55.00
33564;DHT22;19894;48.452;11.494;2023-05-07T08:55:04;19.10;55.10
33564;DHT22;19894;48.452;11.494;2023-05-07T08:57:30;19.20;55.40
33564;DHT22;19894;48.452;11.494;2023-05-07T08:59:55;19.10;55.40
33564;DHT22;19894;48.452;11.494;2023-05-07T09:02:21;19.20;55.60
33564;DHT22;19894;48.452;11.494;2023-05-07T09:04:46;19.10;55.50
33564;DHT22;19894;48.452;11.494;2023-05-07T09:07:12;19.20;55.80
33564;DHT22;19894;48.452;11.494;2023-05-07T09:09:38;19.10;55.80
33564;DHT22;19894;48.452;11.494;2023-05-07T09:12:04;19.10;55.80
33564;DHT22;19894;48.452;11.494;2023-05-07T09:14:29;19.10;55.80
33564;DHT22;19894;48.452;11.494;2023-05-07T09:16:58;19.20;55.70
33564;DHT22;19894;48.452;11.494;2023-05-07T09:19:24;19.10;55.60
33564;DHT22;19894;48.452;11.494;2023-05-07T09:22:05;19.10;55.40
33564;DHT22;19894;48.452;11.494;2023-05-07T09:24:32;19.10;55.20
33564;DHT22;19894;48.452;11.494;2023-05-07T09:27:04;19.20;55.30
33564;DHT22;19894;48.452;11.494;2023-05-07T09:29:30;19.20;55.10
33564;DHT22;19894;48.452;11.494;2023-05-07T09:32:03;19.10;55.00
33564;DHT22;19894;48.452;11.494;2023-05-07T09:34:30;19.20;55.10
33564;DHT22;19894;48.452;11.494;2023-05-07T09:36:57;19.10;54.90
33564;DHT22;19894;48.452;11.494;2023-05-07T09:39:23;19.20;55.00
33564;DHT22;19894;48.452;11.494;2023-05-07T09:41:49;19.20;54.90
33564;DHT22;19894;48.452;11.494;2023-05-07T09:44:16;19.20;54.90
33564;DHT22;19894;48.452;11.494;2023-05-07T09:46:43;19.10;54.70
33564;DHT22;19894;48.452;11.494;2023-05-07T09:49:21;19.10;54.70
33564;DHT22;19894;48.452;11.494;2023-05-07T09:51:51;19.10;54.70
33564;DHT22;19894;48.452;11.494;2023-05-07T09:54:17;19.10;54.70
33564;DHT22;19894;48.452;11.494;2023-05-07T09:56:48;19.10;54.80
33564;DHT22;19894;48.452;11.494;2023-05-07T09:59:16;19.10;55.00
33564;DHT22;19894;48.452;11.494;2023-05-07T10:01:43;19.10;55.00
33564;DHT22;19894;48.452;11.494;2023-05-07T10:04:10;19.10;54.90
33564;DHT22;19894;48.452;11.494;2023-05-07T10:06:36;19.10;55.00
33564;DHT22;19894;48.452;11.494;2023-05-07T10:09:03;19.10;55.00
33564;DHT22;19894;48.452;11.494;2023-05-07T10:11:35;19.10;55.00
33564;DHT22;19894;48.452;11.494;2023-05-07T10:14:02;19.10;55.00
33564;DHT22;19894;48.452;11.494;2023-05-07T10:16:31;19.10;55.50
33564;DHT22;19894;48.452;11.494;2023-05-07T10:18:58;19.20;54.90
33564;DHT22;19894;48.452;11.494;2023-05-07T10:21:26;19.10;54.90
33564;DHT22;19894;48.452;11.494;2023-05-07T10:24:00;19.20;54.80
33564;DHT22;19894;48.452;11.494;2023-05-07T10:26:32;19.20;54.70
33564;DHT22;19894;48.452;11.494;2023-05-07T10:29:11;19.10;54.60
33564;DHT22;19894;48.452;11.494;2023-05-07T10:34:11;19.20;54.60
33564;DHT22;19894;48.452;11.494;2023-05-07T10:36:38;19.10;54.50
33564;DHT22;19894;48.452;11.494;2023-05-07T10:39:05;19.20;54.50
33564;DHT22;19894;48.452;11.494;2023-05-07T10:41:31;19.10;54.50
33564;DHT22;19894;48.452;11.494;2023-05-07T10:43:57;19.20;54.50
33564;DHT22;19894;48.452;11.494;2023-05-07T10:46:26;19.10;54.40
33564;DHT22;19894;48.452;11.494;2023-05-07T10:51:32;19.10;54.40
33564;DHT22;19894;48.452;11.494;2023-05-07T10:56:42;19.10;54.30
33564;DHT22;19894;48.452;11.494;2023-05-07T11:02:02;19.10;54.40
33564;DHT22;19894;48.452;11.494;2023-05-07T11:04:29;19.10;54.50
33564;DHT22;19894;48.452;11.494;2023-05-07T11:15:10;19.10;54.60
33564;DHT22;19894;48.452;11.494;2023-05-07T11:17:59;19.20;55.30
33564;DHT22;19894;48.452;11.494;2023-05-07T11:21:00;19.10;54.90
33564;DHT22;19894;48.452;11.494;2023-05-07T11:26:10;19.10;54.90
33564;DHT22;19894;48.452;11.494;2023-05-07T11:28:41;19.10;55.00
33564;DHT22;19894;48.452;11.494;2023-05-07T11:31:08;19.10;54.80
33564;DHT22;19894;48.452;11.494;2023-05-07T11:33:34;19.10;54.70
33564;DHT22;19894;48.452;11.494;2023-05-07T11:36:01;19.20;54.60
33564;DHT22;19894;48.452;11.494;2023-05-07T11:38:29;19.20;54.60
33564;DHT22;19894;48.452;11.494;2023-05-07T11:40:56;19.20;54.50
33564;DHT22;19894;48.452;11.494;2023-05-07T11:43:22;19.20;54.50
33564;DHT22;19894;48.452;11.494;2023-05-07T11:45:48;19.20;54.50
33564;DHT22;19894;48.452;11.494;2023-05-07T11:48:15;19.20;54.50
33564;DHT22;19894;48.452;11.494;2023-05-07T11:50:52;19.10;55.00
33564;DHT22;19894;48.452;11.494;2023-05-07T11:53:18;19.20;54.50
33564;DHT22;19894;48.452;11.494;2023-05-07T11:55:45;19.20;54.40
33564;DHT22;19894;48.452;11.494;2023-05-07T11:58:12;19.20;54.40
33564;DHT22;19894;48.452;11.494;2023-05-07T12:00:52;19.20;54.40
33564;DHT22;19894;48.452;11.494;2023-05-07T12:03:19;19.10;54.40
33564;DHT22;19894;48.452;11.494;2023-05-07T12:05:45;19.10;54.40
33564;DHT22;19894;48.452;11.494;2023-05-07T12:08:15;19.10;54.40
33564;DHT22;19894;48.452;11.494;2023-05-07T12:10:42;19.10;54.70
33564;DHT22;19894;48.452;11.494;2023-05-07T12:13:18;19.20;54.60
33564;DHT22;19894;48.452;11.494;2023-05-07T12:15:44;19.10;54.70
33564;DHT22;19894;48.452;11.494;2023-05-07T12:18:11;19.10;54.70
33564;DHT22;19894;48.452;11.494;2023-05-07T12:20:37;19.20;54.70
33564;DHT22;19894;48.452;11.494;2023-05-07T12:23:02;19.10;54.60
33564;DHT22;19894;48.452;11.494;2023-05-07T12:25:38;19.10;54.60
33564;DHT22;19894;48.452;11.494;2023-05-07T12:28:04;19.10;54.60
33564;DHT22;19894;48.452;11.494;2023-05-07T12:30:32;19.20;54.60
33564;DHT22;19894;48.452;11.494;2023-05-07T12:32:58;19.10;54.50
33564;DHT22;19894;48.452;11.494;2023-05-07T12:35:30;19.20;54.50
33564;DHT22;19894;48.452;11.494;2023-05-07T12:37:58;19.10;54.30
33564;DHT22;19894;48.452;11.494;2023-05-07T12:40:35;19.10;54.30
33564;DHT22;19894;48.452;11.494;2023-05-07T12:43:01;19.10;54.30
33564;DHT22;19894;48.452;11.494;2023-05-07T12:45:26;19.10;54.30
33564;DHT22;19894;48.452;11.494;2023-05-07T12:47:52;19.20;54.30
33564;DHT22;19894;48.452;11.494;2023-05-07T12:50:17;19.20;54.20
33564;DHT22;19894;48.452;11.494;2023-05-07T12:52:45;19.10;54.20
33564;DHT22;19894;48.452;11.494;2023-05-07T12:55:13;19.20;54.20
33564;DHT22;19894;48.452;11.494;2023-05-07T12:57:41;19.10;54.20
33564;DHT22;19894;48.452;11.494;2023-05-07T13:00:07;19.10;54.20
33564;DHT22;19894;48.452;11.494;2023-05-07T13:02:37;19.10;54.10
33564;DHT22;19894;48.452;11.494;2023-05-07T13:05:03;19.20;54.20
33564;DHT22;19894;48.452;11.494;2023-05-07T13:07:29;19.20;54.20
33564;DHT22;19894;48.452;11.494;2023-05-07T13:09:54;19.10;54.10
33564;DHT22;19894;48.452;11.494;2023-05-07T13:12:20;19.20;54.20
33564;DHT22;19894;48.452;11.494;2023-05-07T13:14:45;19.10;54.20
33564;DHT22;19894;48.452;11.494;2023-05-07T13:17:11;19.20;54.40
33564;DHT22;19894;48.452;11.494;2023-05-07T13:19:36;19.10;54.40
33564;DHT22;19894;48.452;11.494;2023-05-07T13:22:03;19.10;54.50
33564;DHT22;19894;48.452;11.494;2023-05-07T13:24:29;19.20;54.60
33564;DHT22;19894;48.452;11.494;2023-05-07T13:26:54;19.10;54.60
33564;DHT22;19894;48.452;11.494;2023-05-07T13:29:20;19.20;54.70
33564;DHT22;19894;48.452;11.494;2023-05-07T13:31:50;19.20;55.30
33564;DHT22;19894;48.452;11.494;2023-05-07T13:34:16;19.10;54.70
33564;DHT22;19894;48.452;11.494;2023-05-07T13:36:41;19.20;54.90
33564;DHT22;19894;48.452;11.494;2023-05-07T13:39:07;19.20;54.80
33564;DHT22;19894;48.452;11.494;2023-05-07T13:41:32;19.10;54.70
33564;DHT22;19894;48.452;11.494;2023-05-07T13:43:58;19.20;54.70
33564;DHT22;19894;48.452;11.494;2023-05-07T13:46:24;19.20;54.60
33564;DHT22;19894;48.452;11.494;2023-05-07T13:48:49;19.20;54.60
33564;DHT22;19894;48.452;11.494;2023-05-07T13:51:16;19.20;54.50
33564;DHT22;19894;48.452;11.494;2023-05-07T13:53:42;19.20;54.50
33564;DHT22;19894;48.452;11.494;2023-05-07T13:56:07;19.10;54.50
33564;DHT22;19894;48.452;11.494;2023-05-07T13:58:33;19.10;54.40
33564;DHT22;19894;48.452;11.494;2023-05-07T14:00:59;19.10;54.40
33564;DHT22;19894;48.452;11.494;2023-05-07T14:03:24;19.20;54.40
33564;DHT22;19894;48.452;11.494;2023-05-07T14:05:50;19.10;54.40
33564;DHT22;19894;48.452;11.494;2023-05-07T14:08:15;19.20;54.40
33564;DHT22;19894;48.452;11.494;2023-05-07T14:10:43;19.20;54.40
33564;DHT22;19894;48.452;11.494;2023-05-07T14:13:09;19.10;54.30
33564;DHT22;19894;48.452;11.494;2023-05-07T14:15:34;19.20;54.40
33564;DHT22;19894;48.452;11.494;2023-05-07T14:18:00;19.20;54.40
33564;DHT22;19894;48.452;11.494;2023-05-07T14:20:26;19.10;54.40
33564;DHT22;19894;48.452;11.494;2023-05-07T14:22:51;19.20;54.60
33564;DHT22;19894;48.452;11.494;2023-05-07T14:25:17;19.10;54.80
33564;DHT22;19894;48.452;11.494;2023-05-07T14:27:43;19.20;54.90
33564;DHT22;19894;48.452;11.494;2023-05-07T14:30:08;19.20;54.80
33564;DHT22;19894;48.452;11.494;2023-05-07T14:32:35;19.10;54.80
33564;DHT22;19894;48.452;11.494;2023-05-07T14:35:01;19.20;54.90
33564;DHT22;19894;48.452;11.494;2023-05-07T14:37:27;19.10;54.90
33564;DHT22;19894;48.452;11.494;2023-05-07T14:39:52;19.20;55.00
33564;DHT22;19894;48.452;11.494;2023-05-07T14:42:18;19.20;55.10
33564;DHT22;19894;48.452;11.494;2023-05-07T14:44:43;19.20;55.10
33564;DHT22;19894;48.452;11.494;2023-05-07T14:47:10;19.20;55.00
33564;DHT22;19894;48.452;11.494;2023-05-07T14:49:36;19.20;54.90
33564;DHT22;19894;48.452;11.494;2023-05-07T14:52:01;19.20;54.80
33564;DHT22;19894;48.452;11.494;2023-05-07T14:54:27;19.20;54.80
33564;DHT22;19894;48.452;11.494;2023-05-07T14:56:53;19.20;54.70
33564;DHT22;19894;48.452;11.494;2023-05-07T14:59:19;19.20;54.80
33564;DHT22;19894;48.452;11.494;2023-05-07T15:01:47;19.20;54.80
33564;DHT22;19894;48.452;11.494;2023-05-07T15:04:12;19.20;55.20
33564;DHT22;19894;48.452;11.494;2023-05-07T15:06:38;19.20;54.70
33564;DHT22;19894;48.452;11.494;2023-05-07T15:09:04;19.20;54.60
33564;DHT22;19894;48.452;11.494;2023-05-07T15:11:29;19.20;54.60
33564;DHT22;19894;48.452;11.494;2023-05-07T15:13:55;19.20;54.60
33564;DHT22;19894;48.452;11.494;2023-05-07T15:16:21;19.20;54.60
33564;DHT22;19894;48.452;11.494;2023-05-07T15:18:48;19.10;54.50
33564;DHT22;19894;48.452;11.494;2023-05-07T15:21:14;19.20;54.60
33564;DHT22;19894;48.452;11.494;2023-05-07T15:23:40;19.10;54.50
33564;DHT22;19894;48.452;11.494;2023-05-07T15:26:06;19.20;54.60
33564;DHT22;19894;48.452;11.494;2023-05-07T15:28:33;19.20;54.80
33564;DHT22;19894;48.452;11.494;2023-05-07T15:30:59;19.20;54.90
33564;DHT22;19894;48.452;11.494;2023-05-07T15:33:25;19.10;54.90